createdAt,value
2024-04-22T00:00:18.682Z,0.52
2024-04-22T00:01:18.832Z,0.52
2024-04-22T00:02:18.921Z,0.53
2024-04-22T00:03:18.977Z,0.53
2024-04-22T00:04:19.151Z,0.51
2024-04-22T00:05:19.204Z,0.52
2024-04-22T00:06:19.348Z,0.53
2024-04-22T00:07:19.407Z,0.52
2024-04-22T00:08:19.512Z,0.51
2024-04-22T00:09:19.622Z,0.53
2024-04-22T00:10:19.755Z,0.53
2024-04-22T00:11:19.864Z,0.51
2024-04-22T00:12:19.947Z,0.51
2024-04-22T00:13:20.039Z,0.53
2024-04-22T00:14:20.119Z,0.52
2024-04-22T00:15:20.302Z,0.51
2024-04-22T00:16:20.425Z,0.52
2024-04-22T00:17:21.010Z,0.53
2024-04-22T00:18:20.555Z,0.53
2024-04-22T00:19:20.676Z,0.54
2024-04-22T00:20:20.754Z,0.53
2024-04-22T00:21:20.889Z,0.52
2024-04-22T00:22:21.017Z,0.52
2024-04-22T00:23:21.076Z,0.54
2024-04-22T00:24:21.169Z,0.52
2024-04-22T00:25:21.310Z,0.52
2024-04-22T00:26:21.373Z,0.52
2024-04-22T00:27:21.469Z,0.53
2024-04-22T00:28:21.615Z,0.52
2024-04-22T00:29:21.683Z,0.52
2024-04-22T00:30:21.813Z,0.52
2024-04-22T00:31:21.983Z,0.53
2024-04-22T00:32:22.022Z,0.52
2024-04-22T00:33:22.179Z,0.52
2024-04-22T00:34:22.323Z,0.51
2024-04-22T00:35:22.313Z,0.51
2024-04-22T00:36:22.414Z,0.52
2024-04-22T00:37:22.595Z,0.52
2024-04-22T00:38:22.647Z,0.51
2024-04-22T00:39:22.747Z,0.52
2024-04-22T00:40:22.907Z,0.53
2024-04-22T00:41:22.979Z,0.52
2024-04-22T00:42:23.081Z,0.53
2024-04-22T00:43:23.177Z,0.52
2024-04-22T00:44:23.256Z,0.51
2024-04-22T00:45:23.360Z,0.53
2024-04-22T00:46:23.555Z,0.51
2024-04-22T00:47:23.665Z,0.53
2024-04-22T00:48:23.693Z,0.53
2024-04-22T00:49:23.831Z,0.52
2024-04-22T00:50:23.891Z,0.53
2024-04-22T00:51:24.025Z,0.53
2024-04-22T00:52:24.163Z,0.52
2024-04-22T00:53:24.223Z,0.52
2024-04-22T00:54:24.349Z,0.52
2024-04-22T00:55:24.469Z,0.51
2024-04-22T00:56:24.549Z,0.52
2024-04-22T00:57:24.640Z,0.53
2024-04-22T00:58:24.809Z,0.52
2024-04-22T00:59:24.842Z,0.52
2024-04-22T01:00:24.979Z,0.52
2024-04-22T01:01:25.131Z,0.52
2024-04-22T01:02:25.189Z,0.51
2024-04-22T01:03:25.310Z,0.51
2024-04-22T01:04:25.449Z,0.51
2024-04-22T01:05:25.510Z,0.52
2024-04-22T01:06:25.627Z,0.51
2024-04-22T01:07:25.731Z,0.52
2024-04-22T01:08:25.833Z,0.52
2024-04-22T01:09:25.934Z,0.52
2024-04-22T01:10:26.131Z,0.52
2024-04-22T01:11:26.208Z,0.52
2024-04-22T01:12:26.266Z,0.51
2024-04-22T01:13:26.432Z,0.53
2024-04-22T01:14:26.516Z,0.52
2024-04-22T01:15:26.606Z,0.53
2024-04-22T01:16:26.769Z,0.51
2024-04-22T01:17:26.912Z,0.52
2024-04-22T01:18:27.030Z,0.51
2024-04-22T01:19:27.050Z,0.52
2024-04-22T01:20:27.142Z,0.51
2024-04-22T01:21:27.250Z,0.51
2024-04-22T01:22:27.410Z,0.51
2024-04-22T01:23:27.464Z,0.53
2024-04-22T01:24:27.577Z,0.51
2024-04-22T01:25:27.710Z,0.52
2024-04-22T01:26:27.794Z,0.52
2024-04-22T01:27:27.893Z,0.51
2024-04-22T01:28:28.019Z,0.52
2024-04-22T01:29:28.093Z,0.51
2024-04-22T01:30:28.185Z,0.52
2024-04-22T01:31:28.330Z,0.51
2024-04-22T01:32:28.499Z,0.52
2024-04-22T01:33:28.544Z,0.51
2024-04-22T01:34:28.677Z,0.52
2024-04-22T01:35:28.730Z,0.52
2024-04-22T01:36:28.851Z,0.51
2024-04-22T01:37:28.951Z,0.51
2024-04-22T01:38:29.039Z,0.52
2024-04-22T01:39:29.162Z,0.52
2024-04-22T01:40:29.236Z,0.52
2024-04-22T01:41:29.402Z,0.52
2024-04-22T01:42:29.457Z,0.52
2024-04-22T01:43:29.592Z,0.51
2024-04-22T01:44:29.659Z,0.51
2024-04-22T01:45:29.770Z,0.51
2024-04-22T01:46:30.041Z,0.52
2024-04-22T01:47:30.066Z,0.50
2024-04-22T01:48:30.100Z,0.53
2024-04-22T01:49:30.235Z,0.52
2024-04-22T01:50:30.328Z,0.51
2024-04-22T01:51:30.479Z,0.52
2024-04-22T01:52:30.578Z,0.51
2024-04-22T01:53:30.668Z,0.51
2024-04-22T01:54:30.769Z,0.52
2024-04-22T01:55:30.940Z,0.52
2024-04-22T01:56:31.039Z,0.51
2024-04-22T01:57:31.084Z,0.52
2024-04-22T01:58:31.274Z,0.52
2024-04-22T01:59:31.342Z,0.52
2024-04-22T02:00:31.452Z,0.53
2024-04-22T02:01:31.630Z,0.52
2024-04-22T02:02:31.759Z,0.52
2024-04-22T02:03:31.808Z,0.51
2024-04-22T02:04:31.929Z,0.51
2024-04-22T02:05:32.008Z,0.52
2024-04-22T02:06:32.130Z,0.51
2024-04-22T02:07:32.210Z,0.51
2024-04-22T02:08:32.331Z,0.53
2024-04-22T02:09:32.406Z,0.52
2024-04-22T02:10:32.588Z,0.53
2024-04-22T02:11:32.786Z,0.51
2024-04-22T02:12:32.786Z,0.52
2024-04-22T02:13:32.977Z,0.52
2024-04-22T02:14:32.944Z,0.51
2024-04-22T02:15:33.062Z,0.52
2024-04-22T02:16:33.196Z,0.52
2024-04-22T02:17:33.398Z,0.51
2024-04-22T02:18:33.391Z,0.52
2024-04-22T02:19:33.511Z,0.51
2024-04-22T02:20:33.580Z,0.52
2024-04-22T02:21:33.718Z,0.51
2024-04-22T02:22:33.951Z,0.51
2024-04-22T02:23:33.904Z,0.51
2024-04-22T02:24:34.020Z,0.51
2024-04-22T02:25:34.153Z,0.53
2024-04-22T02:26:34.251Z,0.52
2024-04-22T02:27:34.353Z,0.51
2024-04-22T02:28:34.486Z,0.51
2024-04-22T02:29:34.576Z,0.51
2024-04-22T02:30:34.678Z,0.50
2024-04-22T02:31:34.852Z,0.52
2024-04-22T02:32:34.947Z,0.53
2024-04-22T02:33:35.117Z,0.53
2024-04-22T02:34:35.116Z,0.52
2024-04-22T02:35:35.198Z,0.51
2024-04-22T02:36:35.307Z,0.51
2024-04-22T02:37:35.463Z,0.53
2024-04-22T02:38:35.543Z,0.54
2024-04-22T02:39:35.657Z,0.51
2024-04-22T02:40:35.828Z,0.54
2024-04-22T02:41:35.849Z,0.53
2024-04-22T02:42:35.944Z,0.52
2024-04-22T02:43:36.112Z,0.53
2024-04-22T02:44:36.171Z,0.51
2024-04-22T02:45:36.291Z,0.52
2024-04-22T02:46:36.475Z,0.52
2024-04-22T02:47:36.649Z,0.52
2024-04-22T02:48:36.595Z,0.51
2024-04-22T02:49:36.866Z,0.53
2024-04-22T02:50:36.815Z,0.52
2024-04-22T02:51:36.928Z,0.51
2024-04-22T02:52:37.125Z,0.51
2024-04-22T02:53:37.128Z,0.52
2024-04-22T02:54:37.248Z,0.53
2024-04-22T02:55:37.491Z,0.51
2024-04-22T02:56:37.484Z,0.52
2024-04-22T02:57:37.673Z,0.52
2024-04-22T02:58:39.201Z,0.51
2024-04-22T02:59:37.697Z,0.52
2024-04-22T03:00:37.727Z,0.51
2024-04-22T03:01:37.752Z,0.52
2024-04-22T03:02:37.812Z,0.51
2024-04-22T03:03:37.868Z,0.52
2024-04-22T03:04:37.783Z,0.52
2024-04-22T03:05:37.775Z,0.52
2024-04-22T03:06:37.787Z,0.52
2024-04-22T03:07:37.905Z,0.52
2024-04-22T03:08:37.791Z,0.53
2024-04-22T03:09:37.802Z,0.53
2024-04-22T03:10:37.848Z,0.52
2024-04-22T03:11:37.845Z,0.52
2024-04-22T03:12:37.854Z,0.51
2024-04-22T03:13:37.881Z,0.52
2024-04-22T03:14:37.849Z,0.51
2024-04-22T03:15:37.880Z,0.50
2024-04-22T03:16:37.881Z,0.52
2024-04-22T03:17:37.944Z,0.52
2024-04-22T03:18:37.875Z,0.51
2024-04-22T03:19:38.011Z,0.51
2024-04-22T03:20:37.940Z,0.51
2024-04-22T03:21:37.903Z,0.51
2024-04-22T03:22:38.019Z,0.51
2024-04-22T03:23:37.900Z,0.52
2024-04-22T03:24:37.906Z,0.52
2024-04-22T03:25:38.107Z,0.52
2024-04-22T03:26:37.935Z,0.52
2024-04-22T03:27:37.921Z,0.51
2024-04-22T03:28:37.982Z,0.51
2024-04-22T03:29:37.945Z,0.52
2024-04-22T03:30:37.958Z,0.52
2024-04-22T03:31:38.066Z,0.52
2024-04-22T03:32:38.024Z,0.52
2024-04-22T03:33:37.970Z,0.52
2024-04-22T03:34:38.011Z,0.52
2024-04-22T03:35:38.001Z,0.53
2024-04-22T03:36:38.014Z,0.53
2024-04-22T03:37:38.091Z,0.52
2024-04-22T03:38:38.031Z,0.50
2024-04-22T03:39:38.051Z,0.52
2024-04-22T03:40:38.147Z,0.52
2024-04-22T03:41:38.037Z,0.53
2024-04-22T03:42:38.111Z,0.53
2024-04-22T03:43:38.186Z,0.53
2024-04-22T03:44:38.035Z,0.53
2024-04-22T03:45:38.114Z,0.53
2024-04-22T03:46:38.205Z,0.52
2024-04-22T03:47:38.207Z,0.52
2024-04-22T03:48:38.142Z,0.53
2024-04-22T03:49:38.182Z,0.51
2024-04-22T03:50:38.190Z,0.52
2024-04-22T03:51:38.267Z,0.53
2024-04-22T03:52:38.354Z,0.52
2024-04-22T03:53:38.350Z,0.53
2024-04-22T03:54:38.400Z,0.52
2024-04-22T03:55:38.599Z,0.54
2024-04-22T03:56:38.546Z,0.53
2024-04-22T03:57:38.656Z,0.52
2024-04-22T03:58:38.767Z,0.51
2024-04-22T03:59:38.824Z,0.52
2024-04-22T04:00:38.900Z,0.52
2024-04-22T04:01:38.981Z,0.52
2024-04-22T04:02:39.050Z,0.53
2024-04-22T04:03:39.222Z,0.53
2024-04-22T04:04:39.403Z,0.52
2024-04-22T04:05:39.483Z,0.51
2024-04-22T04:06:39.464Z,0.52
2024-04-22T04:07:39.659Z,0.53
2024-04-22T04:08:39.653Z,0.54
2024-04-22T04:09:39.722Z,0.53
2024-04-22T04:10:39.846Z,0.53
2024-04-22T04:11:39.912Z,0.52
2024-04-22T04:12:40.049Z,0.52
2024-04-22T04:13:40.184Z,0.54
2024-04-22T04:14:40.201Z,0.52
2024-04-22T04:15:40.298Z,0.52
2024-04-22T04:16:40.527Z,0.53
2024-04-22T04:17:40.599Z,0.52
2024-04-22T04:18:40.573Z,0.53
2024-04-22T04:19:40.757Z,0.53
2024-04-22T04:20:40.771Z,0.52
2024-04-22T04:21:40.860Z,0.53
2024-04-22T04:22:41.134Z,0.52
2024-04-22T04:23:41.060Z,0.52
2024-04-22T04:24:41.161Z,0.53
2024-04-22T04:25:41.287Z,0.53
2024-04-22T04:26:41.315Z,0.51
2024-04-22T04:27:41.415Z,0.53
2024-04-22T04:28:41.522Z,0.53
2024-04-22T04:29:41.602Z,0.53
2024-04-22T04:30:41.690Z,0.51
2024-04-22T04:31:41.867Z,0.51
2024-04-22T04:32:41.942Z,0.52
2024-04-22T04:33:41.956Z,0.52
2024-04-22T04:34:42.103Z,0.51
2024-04-22T04:35:42.153Z,0.52
2024-04-22T04:36:42.261Z,0.53
2024-04-22T04:37:42.409Z,0.52
2024-04-22T04:38:42.416Z,0.52
2024-04-22T04:39:42.514Z,0.52
2024-04-22T04:40:42.622Z,0.52
2024-04-22T04:41:42.709Z,0.53
2024-04-22T04:42:42.771Z,0.52
2024-04-22T04:43:42.960Z,0.53
2024-04-22T04:44:50.301Z,0.50
2024-04-22T04:45:50.307Z,0.50
2024-04-22T04:46:50.379Z,0.50
2024-04-22T04:47:50.412Z,0.50
2024-04-22T04:48:53.395Z,0.50
2024-04-22T04:49:50.423Z,0.50
2024-04-22T04:50:50.378Z,0.50
2024-04-22T04:51:50.451Z,0.50
2024-04-22T04:52:50.429Z,0.50
2024-04-22T04:53:50.446Z,0.50
2024-04-22T04:54:53.212Z,0.51
2024-04-22T04:55:50.572Z,0.51
2024-04-22T04:56:50.483Z,0.51
2024-04-22T04:57:50.484Z,0.51
2024-04-22T04:58:50.637Z,0.51
2024-04-22T04:59:50.564Z,0.50
2024-04-22T05:00:50.640Z,0.50
2024-04-22T05:01:50.725Z,0.51
2024-04-22T05:02:50.668Z,0.50
2024-04-22T05:03:50.606Z,0.52
2024-04-22T05:04:50.644Z,0.52
2024-04-22T05:05:50.659Z,0.51
2024-04-22T05:06:50.699Z,0.51
2024-04-22T05:07:50.699Z,0.52
2024-04-22T05:08:50.732Z,0.52
2024-04-22T05:09:50.734Z,0.52
2024-04-22T05:10:50.812Z,0.51
2024-04-22T05:11:50.822Z,0.51
2024-04-22T05:12:53.531Z,0.53
2024-04-22T05:13:50.808Z,0.52
2024-04-22T05:14:50.793Z,0.53
2024-04-22T05:15:50.821Z,0.53
2024-04-22T05:16:50.915Z,0.52
2024-04-22T05:17:50.926Z,0.52
2024-04-22T05:18:50.912Z,0.52
2024-04-22T05:19:50.864Z,0.50
2024-04-22T05:20:50.901Z,0.51
2024-04-22T05:21:50.995Z,0.52
2024-04-22T05:22:50.966Z,0.51
2024-04-22T05:23:50.974Z,0.51
2024-04-22T05:24:50.969Z,0.50
2024-04-22T05:25:51.047Z,0.50
2024-04-22T05:26:51.062Z,0.50
2024-04-22T05:27:51.040Z,0.51
2024-04-22T05:28:51.126Z,0.52
2024-04-22T05:29:51.072Z,0.52
2024-04-22T05:30:51.084Z,0.52
2024-04-22T05:31:51.219Z,0.52
2024-04-22T05:32:51.263Z,0.52
2024-04-22T05:33:51.269Z,0.52
2024-04-22T05:34:51.335Z,0.53
2024-04-22T05:35:51.419Z,0.53
2024-04-22T05:36:51.505Z,0.53
2024-04-22T05:37:51.569Z,0.52
2024-04-22T05:38:51.729Z,0.54
2024-04-22T05:39:51.760Z,0.52
2024-04-22T05:40:51.869Z,0.53
2024-04-22T05:41:51.918Z,0.53
2024-04-22T05:42:51.993Z,0.53
2024-04-22T05:43:52.142Z,0.53
2024-04-22T05:44:52.138Z,0.53
2024-04-22T05:45:52.244Z,0.53
2024-04-22T05:46:52.360Z,0.53
2024-04-22T05:47:52.513Z,0.54
2024-04-22T05:48:52.469Z,0.53
2024-04-22T05:49:52.568Z,0.54
2024-04-22T05:50:52.649Z,0.53
2024-04-22T05:51:52.756Z,0.53
2024-04-22T05:52:52.863Z,0.53
2024-04-22T05:53:52.982Z,0.52
2024-04-22T05:54:52.997Z,0.53
2024-04-22T05:55:53.072Z,0.53
2024-04-22T05:56:53.150Z,0.53
2024-04-22T05:57:53.242Z,0.52
2024-04-22T05:58:53.333Z,0.53
2024-04-22T05:59:53.393Z,0.52
2024-04-22T06:00:53.512Z,0.52
2024-04-22T06:01:53.675Z,0.53
2024-04-22T06:02:53.639Z,0.52
2024-04-22T06:03:53.837Z,0.52
2024-04-22T06:04:53.906Z,0.53
2024-04-22T06:05:53.889Z,0.53
2024-04-22T06:06:53.990Z,0.52
2024-04-22T06:07:54.081Z,0.52
2024-04-22T06:08:54.159Z,0.52
2024-04-22T06:09:54.253Z,0.52
2024-04-22T06:10:54.369Z,0.52
2024-04-22T06:12:07.352Z,0.52
2024-04-22T06:12:55.447Z,0.52
2024-04-22T06:13:54.443Z,0.52
2024-04-22T06:14:54.495Z,0.52
2024-04-22T06:15:54.526Z,0.52
2024-04-22T06:16:54.562Z,0.53
2024-04-22T06:17:54.591Z,0.53
2024-04-22T06:18:54.635Z,0.53
2024-04-22T06:19:54.604Z,0.53
2024-04-22T06:20:54.688Z,0.53
2024-04-22T06:21:54.715Z,0.52
2024-04-22T06:22:54.862Z,0.52
2024-04-22T06:23:54.869Z,0.53
2024-04-22T06:24:54.935Z,0.53
2024-04-22T06:25:55.076Z,0.53
2024-04-22T06:26:55.186Z,0.52
2024-04-22T06:27:55.190Z,0.52
2024-04-22T06:28:55.272Z,0.53
2024-04-22T06:29:55.323Z,0.52
2024-04-22T06:30:55.396Z,0.51
2024-04-22T06:31:55.648Z,0.52
2024-04-22T06:32:55.571Z,0.51
2024-04-22T06:33:55.623Z,0.50
2024-04-22T06:34:55.687Z,0.51
2024-04-22T06:35:55.789Z,0.51
2024-04-22T06:36:55.867Z,0.52
2024-04-22T06:37:55.885Z,0.53
2024-04-22T06:38:55.993Z,0.51
2024-04-22T06:39:56.032Z,0.52
2024-04-22T06:40:56.107Z,0.52
2024-04-22T06:41:56.159Z,0.51
2024-04-22T06:42:56.193Z,0.52
2024-04-22T06:43:56.335Z,0.53
2024-04-22T06:44:56.328Z,0.52
2024-04-22T06:45:56.385Z,0.52
2024-04-22T06:46:56.625Z,0.52
2024-04-22T06:47:56.611Z,0.53
2024-04-22T06:48:56.543Z,0.52
2024-04-22T06:49:56.671Z,0.53
2024-04-22T06:50:56.662Z,0.53
2024-04-22T06:51:56.724Z,0.53
2024-04-22T06:52:56.778Z,0.53
2024-04-22T06:53:56.864Z,0.52
2024-04-22T06:54:56.914Z,0.53
2024-04-22T06:55:57.060Z,0.53
2024-04-22T06:56:57.084Z,0.54
2024-04-22T06:57:57.148Z,0.54
2024-04-22T06:58:57.262Z,0.53
2024-04-22T06:59:57.300Z,0.53
2024-04-22T07:00:57.385Z,0.53
2024-04-22T07:01:57.491Z,0.55
2024-04-22T07:02:57.619Z,0.55
2024-04-22T07:03:57.720Z,0.55
2024-04-22T07:04:57.736Z,0.54
2024-04-22T07:05:57.753Z,0.56
2024-04-22T07:06:57.864Z,0.56
2024-04-22T07:07:57.982Z,0.56
2024-04-22T07:08:58.017Z,0.55
2024-04-22T07:09:58.110Z,0.55
2024-04-22T07:10:58.287Z,0.55
2024-04-22T07:11:58.293Z,0.55
2024-04-22T07:12:58.420Z,0.54
2024-04-22T07:13:58.483Z,0.55
2024-04-22T07:14:58.612Z,0.54
2024-04-22T07:15:58.644Z,0.56
2024-04-22T07:16:58.886Z,0.55
2024-04-22T07:17:58.850Z,0.56
2024-04-22T07:18:58.931Z,0.57
2024-04-22T07:19:58.997Z,0.57
2024-04-22T07:20:59.099Z,0.57
2024-04-22T07:21:59.196Z,0.56
2024-04-22T07:22:59.258Z,0.55
2024-04-22T07:23:59.341Z,0.56
2024-04-22T07:25:04.014Z,0.56
2024-04-22T07:26:00.433Z,0.56
2024-04-22T07:26:59.490Z,0.56
2024-04-22T07:28:00.970Z,0.57
2024-04-22T07:28:59.538Z,0.56
2024-04-22T07:29:59.596Z,0.57
2024-04-22T07:30:59.593Z,0.56
2024-04-22T07:31:59.598Z,0.56
2024-04-22T07:32:59.687Z,0.56
2024-04-22T07:33:59.634Z,0.57
2024-04-22T07:34:59.708Z,0.56
2024-04-22T07:35:59.700Z,0.56
2024-04-22T07:36:59.783Z,0.57
2024-04-22T07:37:59.774Z,0.57
2024-04-22T07:38:59.782Z,0.57
2024-04-22T07:39:59.831Z,0.58
2024-04-22T07:40:59.834Z,0.57
2024-04-22T07:42:00.210Z,0.57
2024-04-22T07:42:59.906Z,0.58
2024-04-22T07:43:59.911Z,0.57
2024-04-22T07:44:59.931Z,0.58
2024-04-22T07:45:59.955Z,0.56
2024-04-22T07:47:00.157Z,0.62
2024-04-22T07:48:00.365Z,0.64
2024-04-22T07:49:00.226Z,0.66
2024-04-22T07:50:00.390Z,0.72
2024-04-22T07:51:00.452Z,0.75
2024-04-22T07:52:00.569Z,0.78
2024-04-22T07:53:00.630Z,0.83
2024-04-22T07:54:00.758Z,0.84
2024-04-22T07:55:00.882Z,0.86
2024-04-22T07:56:00.921Z,0.89
2024-04-22T07:57:01.056Z,0.90
2024-04-22T07:58:01.140Z,0.90
2024-04-22T07:59:01.282Z,0.92
2024-04-22T08:00:01.526Z,0.93
2024-04-22T08:01:01.587Z,0.98
2024-04-22T08:02:01.690Z,0.98
2024-04-22T08:03:02.003Z,1.00
2024-04-22T08:04:01.993Z,0.99
2024-04-22T08:05:03.007Z,1.04
2024-04-22T08:06:02.293Z,1.06
2024-04-22T08:07:02.408Z,1.06
2024-04-22T08:08:02.543Z,1.05
2024-04-22T08:09:02.648Z,1.13
2024-04-22T08:10:02.755Z,1.11
2024-04-22T08:11:02.883Z,1.15
2024-04-22T08:12:03.077Z,1.15
2024-04-22T08:13:03.204Z,1.17
2024-04-22T08:14:03.562Z,1.16
2024-04-22T08:15:03.558Z,1.19
2024-04-22T08:16:03.552Z,1.21
2024-04-22T08:17:03.822Z,1.24
2024-04-22T08:18:03.949Z,1.25
2024-04-22T08:19:03.961Z,1.27
2024-04-22T08:20:04.100Z,1.28
2024-04-22T08:21:04.262Z,1.28
2024-04-22T08:22:04.394Z,1.29
2024-04-22T08:23:04.520Z,1.32
2024-04-22T08:24:04.629Z,1.31
2024-04-22T08:25:04.750Z,1.36
2024-04-22T08:26:04.895Z,1.40
2024-04-22T08:27:05.048Z,1.41
2024-04-22T08:28:05.154Z,1.41
2024-04-22T08:29:05.336Z,1.44
2024-04-22T08:30:05.398Z,1.41
2024-04-22T08:31:05.531Z,1.44
2024-04-22T08:32:05.681Z,1.48
2024-04-22T08:33:05.826Z,1.50
2024-04-22T08:34:05.900Z,1.51
2024-04-22T08:35:06.030Z,1.57
2024-04-22T08:36:06.238Z,1.59
2024-04-22T08:37:06.486Z,1.62
2024-04-22T08:38:07.790Z,1.65
2024-04-22T08:39:06.733Z,1.71
2024-04-22T08:40:06.721Z,1.74
2024-04-22T08:41:06.956Z,1.75
2024-04-22T08:42:07.030Z,1.80
2024-04-22T08:43:07.095Z,1.81
2024-04-22T08:44:07.254Z,1.83
2024-04-22T08:45:07.407Z,1.83
2024-04-22T08:46:07.539Z,1.84
2024-04-22T08:47:07.716Z,1.82
2024-04-22T08:48:07.840Z,1.89
2024-04-22T08:49:07.914Z,1.82
2024-04-22T08:50:08.030Z,1.80
2024-04-22T08:51:08.174Z,1.77
2024-04-22T08:52:08.300Z,1.80
2024-04-22T08:53:08.587Z,1.80
2024-04-22T08:54:08.564Z,1.80
2024-04-22T08:55:08.677Z,1.79
2024-04-22T08:56:08.781Z,1.75
2024-04-22T08:57:08.924Z,1.68
2024-04-22T08:58:09.049Z,1.70
2024-04-22T08:59:15.820Z,1.76
2024-04-22T09:00:10.172Z,1.76
2024-04-22T09:01:09.283Z,1.72
2024-04-22T09:02:09.268Z,1.72
2024-04-22T09:03:09.369Z,1.68
2024-04-22T09:04:09.333Z,1.69
2024-04-22T09:05:09.709Z,1.61
2024-04-22T09:06:09.395Z,1.62
2024-04-22T09:07:09.371Z,1.58
2024-04-22T09:08:09.418Z,1.51
2024-04-22T09:09:11.276Z,1.48
2024-04-22T09:10:35.030Z,1.47
2024-04-22T09:12:11.738Z,1.44
2024-04-22T09:13:09.672Z,1.47
2024-04-22T09:14:09.691Z,1.40
2024-04-22T09:15:09.560Z,1.37
2024-04-22T09:16:09.540Z,1.37
2024-04-22T09:17:09.802Z,1.33
2024-04-22T09:18:09.798Z,1.29
2024-04-22T09:19:09.735Z,1.29
2024-04-22T09:20:09.702Z,1.28
2024-04-22T09:21:09.860Z,1.29
2024-04-22T09:22:09.711Z,1.23
2024-04-22T09:23:09.766Z,1.25
2024-04-22T09:24:09.800Z,1.19
2024-04-22T09:25:09.724Z,1.08
2024-04-22T09:26:09.892Z,1.13
2024-04-22T09:27:09.762Z,1.19
2024-04-22T09:28:09.784Z,1.23
2024-04-22T09:29:09.952Z,1.27
2024-04-22T09:30:09.828Z,1.27
2024-04-22T09:31:09.973Z,1.24
2024-04-22T09:32:09.946Z,1.24
2024-04-22T09:33:10.026Z,1.21
2024-04-22T09:34:10.021Z,1.22
2024-04-22T09:35:13.583Z,1.19
2024-04-22T09:36:11.012Z,1.19
2024-04-22T09:37:09.980Z,1.19
2024-04-22T09:38:09.985Z,1.20
2024-04-22T09:39:09.988Z,1.18
2024-04-22T09:40:10.050Z,1.18
2024-04-22T09:41:10.098Z,1.22
2024-04-22T09:42:10.055Z,1.25
2024-04-22T09:43:10.068Z,1.23
2024-04-22T09:44:13.622Z,1.18
2024-04-22T09:45:11.172Z,1.16
2024-04-22T09:46:10.126Z,1.14
2024-04-22T09:47:10.355Z,1.06
2024-04-22T09:48:10.419Z,1.07
2024-04-22T09:49:10.439Z,1.05
2024-04-22T09:50:10.372Z,1.04
2024-04-22T09:51:10.230Z,1.00
2024-04-22T09:52:10.304Z,1.00
2024-04-22T09:53:10.433Z,0.98
2024-04-22T09:54:10.317Z,1.01
2024-04-22T09:55:10.374Z,1.00
2024-04-22T09:56:10.603Z,1.01
2024-04-22T09:57:10.380Z,0.98
2024-04-22T09:58:10.473Z,0.98
2024-04-22T09:59:10.733Z,1.00
2024-04-22T10:00:10.528Z,0.97
2024-04-22T10:01:10.529Z,0.97
2024-04-22T10:02:10.652Z,0.97
2024-04-22T10:03:10.665Z,0.98
2024-04-22T10:04:10.702Z,0.97
2024-04-22T10:05:10.911Z,0.99
2024-04-22T10:06:10.912Z,0.98
2024-04-22T10:07:10.923Z,0.98
2024-04-22T10:08:10.867Z,1.00
2024-04-22T10:09:10.874Z,1.01
2024-04-22T10:10:10.963Z,0.99
2024-04-22T10:11:11.604Z,1.00
2024-04-22T10:12:12.715Z,1.00
2024-04-22T10:13:11.110Z,1.02
2024-04-22T10:14:11.152Z,1.06
2024-04-22T10:15:11.203Z,1.02
2024-04-22T10:16:11.120Z,1.03
2024-04-22T10:17:13.057Z,1.00
2024-04-22T10:18:11.294Z,1.02
2024-04-22T10:19:11.425Z,1.02
2024-04-22T10:20:11.315Z,1.00
2024-04-22T10:21:11.212Z,1.00
2024-04-22T10:22:11.185Z,1.03
2024-04-22T10:23:11.246Z,1.03
2024-04-22T10:24:11.262Z,1.01
2024-04-22T10:25:11.259Z,1.00
2024-04-22T10:26:11.264Z,1.00
2024-04-22T10:27:12.812Z,1.00
2024-04-22T10:28:11.359Z,1.00
2024-04-22T10:29:11.406Z,1.00
2024-04-22T10:30:11.445Z,0.99
2024-04-22T10:31:11.577Z,1.00
2024-04-22T10:32:11.721Z,0.99
2024-04-22T10:33:11.858Z,0.97
2024-04-22T10:34:11.918Z,0.98
2024-04-22T10:35:11.952Z,0.96
2024-04-22T10:36:12.051Z,0.96
2024-04-22T10:37:12.108Z,0.96
2024-04-22T10:38:12.494Z,0.96
2024-04-22T10:39:12.497Z,0.94
2024-04-22T10:40:12.444Z,0.96
2024-04-22T10:41:12.494Z,0.95
2024-04-22T10:42:12.629Z,0.95
2024-04-22T10:43:12.933Z,0.91
2024-04-22T10:44:13.299Z,0.90
2024-04-22T10:45:12.881Z,0.91
2024-04-22T10:46:13.669Z,0.87
2024-04-22T10:47:13.083Z,0.87
2024-04-22T10:48:17.732Z,0.87
2024-04-22T10:49:14.200Z,0.87
2024-04-22T10:50:13.020Z,0.87
2024-04-22T10:51:13.001Z,0.86
2024-04-22T10:52:13.071Z,0.85
2024-04-22T10:53:13.037Z,0.85
2024-04-22T10:54:13.060Z,0.85
2024-04-22T10:55:13.113Z,0.85
2024-04-22T10:56:13.135Z,0.83
2024-04-22T10:57:13.135Z,0.83
2024-04-22T10:58:13.569Z,0.81
2024-04-22T10:59:13.171Z,0.82
2024-04-22T11:00:13.165Z,0.80
2024-04-22T11:01:13.617Z,0.80
2024-04-22T11:02:13.407Z,0.79
2024-04-22T11:03:13.318Z,0.80
2024-04-22T11:04:13.572Z,0.80
2024-04-22T11:05:14.438Z,0.80
2024-04-22T11:06:13.581Z,0.79
2024-04-22T11:07:13.596Z,0.77
2024-04-22T11:08:13.601Z,0.77
2024-04-22T11:09:13.654Z,0.78
2024-04-22T11:10:13.657Z,0.77
2024-04-22T11:11:13.755Z,0.77
2024-04-22T11:12:13.881Z,0.76
2024-04-22T11:13:14.161Z,0.76
2024-04-22T11:14:14.000Z,0.77
2024-04-22T11:15:14.027Z,0.78
2024-04-22T11:16:14.199Z,0.76
2024-04-22T11:17:14.248Z,0.77
2024-04-22T11:18:14.366Z,0.76
2024-04-22T11:19:14.435Z,0.75
2024-04-22T11:20:14.526Z,0.75
2024-04-22T11:21:14.583Z,0.76
2024-04-22T11:22:14.697Z,0.74
2024-04-22T11:23:14.774Z,0.76
2024-04-22T11:24:14.848Z,0.74
2024-04-22T11:25:14.973Z,0.73
2024-04-22T11:26:15.031Z,0.75
2024-04-22T11:27:15.133Z,0.76
2024-04-22T11:28:15.228Z,0.75
2024-04-22T11:29:15.229Z,0.73
2024-04-22T11:30:15.307Z,0.73
2024-04-22T11:31:15.430Z,0.72
2024-04-22T11:32:15.517Z,0.73
2024-04-22T11:33:15.630Z,0.72
2024-04-22T11:34:15.716Z,0.72
2024-04-22T11:35:15.781Z,0.74
2024-04-22T11:36:15.845Z,0.73
2024-04-22T11:37:15.944Z,0.70
2024-04-22T11:38:16.041Z,0.72
2024-04-22T11:39:16.526Z,0.71
2024-04-22T11:40:16.188Z,0.70
2024-04-22T11:41:16.150Z,0.70
2024-04-22T11:42:16.210Z,0.71
2024-04-22T11:43:16.267Z,0.69
2024-04-22T11:44:16.280Z,0.69
2024-04-22T11:45:16.401Z,0.70
2024-04-22T11:46:16.381Z,0.71
2024-04-22T11:47:16.425Z,0.69
2024-04-22T11:48:16.474Z,0.69
2024-04-22T11:49:16.488Z,0.71
2024-04-22T11:50:16.494Z,0.68
2024-04-22T11:51:16.529Z,0.67
2024-04-22T11:52:16.645Z,0.68
2024-04-22T11:53:23.586Z,0.69
2024-04-22T11:54:18.143Z,0.69
2024-04-22T11:55:16.888Z,0.69
2024-04-22T11:56:16.768Z,0.69
2024-04-22T11:57:16.792Z,0.70
2024-04-22T11:58:16.838Z,0.71
2024-04-22T11:59:16.818Z,0.69
2024-04-22T12:00:16.812Z,0.70
2024-04-22T12:01:16.855Z,0.70
2024-04-22T12:02:16.866Z,0.70
2024-04-22T12:03:16.864Z,0.69
2024-04-22T12:04:16.997Z,0.69
2024-04-22T12:05:17.048Z,0.68
2024-04-22T12:06:16.966Z,0.69
2024-04-22T12:07:16.970Z,0.70
2024-04-22T12:08:17.000Z,0.69
2024-04-22T12:09:17.003Z,0.70
2024-04-22T12:10:17.032Z,0.68
2024-04-22T12:11:17.074Z,0.69
2024-04-22T12:12:17.057Z,0.68
2024-04-22T12:13:17.200Z,0.68
2024-04-22T12:14:17.232Z,0.69
2024-04-22T12:15:17.346Z,0.68
2024-04-22T12:16:17.474Z,0.68
2024-04-22T12:17:17.615Z,0.67
2024-04-22T12:18:17.563Z,0.69
2024-04-22T12:19:17.814Z,0.70
2024-04-22T12:20:17.778Z,0.67
2024-04-22T12:21:17.845Z,0.66
2024-04-22T12:22:17.955Z,0.65
2024-04-22T12:23:18.020Z,0.63
2024-04-22T12:24:18.090Z,0.62
2024-04-22T12:25:18.244Z,0.64
2024-04-22T12:26:18.237Z,0.63
2024-04-22T12:27:18.367Z,0.64
2024-04-22T12:28:22.180Z,0.64
2024-04-22T12:29:18.464Z,0.64
2024-04-22T12:30:18.512Z,0.64
2024-04-22T12:31:18.518Z,0.65
2024-04-22T12:32:18.536Z,0.67
2024-04-22T12:33:18.558Z,0.71
2024-04-22T12:34:18.639Z,0.73
2024-04-22T12:35:18.568Z,0.72
2024-04-22T12:36:18.568Z,0.75
2024-04-22T12:37:18.601Z,0.78
2024-04-22T12:38:18.640Z,0.80
2024-04-22T12:39:18.582Z,0.83
2024-04-22T12:40:18.620Z,0.88
2024-04-22T12:41:19.585Z,0.91
2024-04-22T12:42:18.606Z,0.95
2024-04-22T12:43:18.677Z,0.98
2024-04-22T12:44:18.647Z,1.00
2024-04-22T12:45:18.675Z,1.02
2024-04-22T12:46:18.668Z,1.04
2024-04-22T12:47:18.726Z,1.09
2024-04-22T12:48:18.714Z,1.11
2024-04-22T12:49:18.694Z,1.18
2024-04-22T12:50:18.779Z,1.20
2024-04-22T12:51:18.917Z,1.22
2024-04-22T12:54:39.821Z,0.50
2024-04-22T12:55:39.774Z,0.50
2024-04-22T12:56:39.736Z,0.50
2024-04-22T12:57:39.763Z,0.50
2024-04-22T12:58:39.775Z,0.50
2024-04-22T12:59:39.618Z,0.50
2024-04-22T13:00:39.609Z,0.50
2024-04-22T13:01:39.605Z,0.50
2024-04-22T13:02:39.558Z,0.51
2024-04-22T13:03:39.495Z,0.52
2024-04-22T13:04:39.477Z,0.51
2024-04-22T13:05:39.409Z,0.50
2024-04-22T13:06:39.346Z,0.51
2024-04-22T13:07:39.365Z,0.53
2024-04-22T13:08:39.271Z,0.53
2024-04-22T13:09:39.226Z,0.53
2024-04-22T13:10:39.299Z,0.54
2024-04-22T13:11:39.176Z,0.56
2024-04-22T13:12:39.116Z,0.56
2024-04-22T13:13:39.156Z,0.57
2024-04-22T13:14:39.012Z,0.60
2024-04-22T13:15:38.984Z,0.60
2024-04-22T13:16:38.965Z,0.61
2024-04-22T13:17:38.970Z,0.62
2024-04-22T13:18:39.047Z,0.65
2024-04-22T13:19:38.944Z,0.64
2024-04-22T13:20:38.981Z,0.66
2024-04-22T13:21:39.028Z,0.65
2024-04-22T13:22:39.125Z,0.67